sensor_id;sensor_type;location;lat;lon;timestamp;temperature;humidity
14755;DHT22;7469;50.906;6.952;2024-02-21T00:01:43;9.80;99.90
14755;DHT22;7469;50.906;6.952;2024-02-21T00:04:10;9.80;99.90
14755;DHT22;7469;50.906;6.952;2024-02-21T00:06:40;9.80;99.90
14755;DHT22;7469;50.906;6.952;2024-02-21T00:09:08;9.80;99.90
14755;DHT22;7469;50.906;6.952;2024-02-21T00:11:36;9.70;99.90
14755;DHT22;7469;50.906;6.952;2024-02-21T00:14:04;9.70;99.90
14755;DHT22;7469;50.906;6.952;2024-02-21T00:16:32;9.70;99.90
14755;DHT22;7469;50.906;6.952;2024-02-21T00:19:00;9.70;99.90
14755;DHT22;7469;50.906;6.952;2024-02-21T00:21:28;9.70;99.90
14755;DHT22;7469;50.906;6.952;2024-02-21T00:23:57;9.70;99.90
14755;DHT22;7469;50.906;6.952;2024-02-21T00:26:25;9.70;99.90
14755;DHT22;7469;50.906;6.952;2024-02-21T00:28:53;9.70;99.90
14755;DHT22;7469;50.906;6.952;2024-02-21T00:31:22;9.70;99.90
14755;DHT22;7469;50.906;6.952;2024-02-21T00:33:50;9.70;99.90
14755;DHT22;7469;50.906;6.952;2024-02-21T00:36:18;9.70;99.90
14755;DHT22;7469;50.906;6.952;2024-02-21T00:38:46;9.70;99.90
14755;DHT22;7469;50.906;6.952;2024-02-21T00:41:15;9.70;99.90
14755;DHT22;7469;50.906;6.952;2024-02-21T00:43:43;9.70;99.90
14755;DHT22;7469;50.906;6.952;2024-02-21T00:46:11;9.70;99.90
14755;DHT22;7469;50.906;6.952;2024-02-21T00:48:39;9.70;99.90
14755;DHT22;7469;50.906;6.952;2024-02-21T00:51:07;9.70;99.90
14755;DHT22;7469;50.906;6.952;2024-02-21T00:53:35;9.70;99.90
14755;DHT22;7469;50.906;6.952;2024-02-21T00:56:05;9.70;99.90
14755;DHT22;7469;50.906;6.952;2024-02-21T00:58:34;9.70;99.90
14755;DHT22;7469;50.906;6.952;2024-02-21T01:01:03;9.70;99.90
14755;DHT22;7469;50.906;6.952;2024-02-21T01:03:31;9.70;99.90
14755;DHT22;7469;50.906;6.952;2024-02-21T01:05:58;9.70;99.90
14755;DHT22;7469;50.906;6.952;2024-02-21T01:08:27;9.70;99.90
14755;DHT22;7469;50.906;6.952;2024-02-21T01:10:54;9.70;99.90
14755;DHT22;7469;50.906;6.952;2024-02-21T01:13:23;9.70;99.90
14755;DHT22;7469;50.906;6.952;2024-02-21T01:15:52;9.70;99.90
14755;DHT22;7469;50.906;6.952;2024-02-21T01:18:20;9.70;99.90
14755;DHT22;7469;50.906;6.952;2024-02-21T01:20:48;9.70;99.90
14755;DHT22;7469;50.906;6.952;2024-02-21T01:23:16;9.70;99.90
14755;DHT22;7469;50.906;6.952;2024-02-21T01:25:44;9.70;99.90
14755;DHT22;7469;50.906;6.952;2024-02-21T01:28:12;9.70;99.90
14755;DHT22;7469;50.906;6.952;2024-02-21T01:30:40;9.60;99.90
14755;DHT22;7469;50.906;6.952;2024-02-21T01:33:09;9.70;99.90
14755;DHT22;7469;50.906;6.952;2024-02-21T01:35:37;9.70;99.90
14755;DHT22;7469;50.906;6.952;2024-02-21T01:38:05;9.70;99.90
14755;DHT22;7469;50.906;6.952;2024-02-21T01:40:33;9.70;99.90
14755;DHT22;7469;50.906;6.952;2024-02-21T01:43:01;9.70;99.90
14755;DHT22;7469;50.906;6.952;2024-02-21T01:45:29;9.60;99.90
14755;DHT22;7469;50.906;6.952;2024-02-21T01:47:57;9.60;99.90
14755;DHT22;7469;50.906;6.952;2024-02-21T01:50:27;9.60;99.90
14755;DHT22;7469;50.906;6.952;2024-02-21T01:52:56;9.60;99.90
14755;DHT22;7469;50.906;6.952;2024-02-21T01:55:24;9.50;99.90
14755;DHT22;7469;50.906;6.952;2024-02-21T01:57:52;9.50;99.90
14755;DHT22;7469;50.906;6.952;2024-02-21T02:00:20;9.50;99.90
14755;DHT22;7469;50.906;6.952;2024-02-21T02:02:49;9.50;99.90
14755;DHT22;7469;50.906;6.952;2024-02-21T02:05:17;9.50;99.90
14755;DHT22;7469;50.906;6.952;2024-02-21T02:07:49;9.50;99.90
14755;DHT22;7469;50.906;6.952;2024-02-21T02:10:17;9.50;99.90
14755;DHT22;7469;50.906;6.952;2024-02-21T02:12:45;9.50;99.90
14755;DHT22;7469;50.906;6.952;2024-02-21T02:15:13;9.50;99.90
14755;DHT22;7469;50.906;6.952;2024-02-21T02:17:41;9.50;99.90
14755;DHT22;7469;50.906;6.952;2024-02-21T02:20:10;9.40;99.90
14755;DHT22;7469;50.906;6.952;2024-02-21T02:22:39;9.40;99.90
14755;DHT22;7469;50.906;6.952;2024-02-21T02:25:11;9.40;99.90
14755;DHT22;7469;50.906;6.952;2024-02-21T02:27:42;9.40;99.90
14755;DHT22;7469;50.906;6.952;2024-02-21T02:30:12;9.40;99.90
14755;DHT22;7469;50.906;6.952;2024-02-21T02:32:44;9.30;99.90
14755;DHT22;7469;50.906;6.952;2024-02-21T02:35:12;9.30;99.90
14755;DHT22;7469;50.906;6.952;2024-02-21T02:37:46;9.30;99.90
14755;DHT22;7469;50.906;6.952;2024-02-21T02:40:16;9.30;99.90
14755;DHT22;7469;50.906;6.952;2024-02-21T02:42:45;9.30;99.90
14755;DHT22;7469;50.906;6.952;2024-02-21T02:45:13;9.30;99.90
14755;DHT22;7469;50.906;6.952;2024-02-21T02:47:41;9.20;99.90
14755;DHT22;7469;50.906;6.952;2024-02-21T02:50:10;9.30;99.90
14755;DHT22;7469;50.906;6.952;2024-02-21T02:52:38;9.30;99.90
14755;DHT22;7469;50.906;6.952;2024-02-21T02:55:06;9.30;99.90
14755;DHT22;7469;50.906;6.952;2024-02-21T02:57:36;9.30;99.90
14755;DHT22;7469;50.906;6.952;2024-02-21T03:00:05;9.30;99.90
14755;DHT22;7469;50.906;6.952;2024-02-21T03:02:34;9.30;99.90
14755;DHT22;7469;50.906;6.952;2024-02-21T03:05:12;9.20;99.90
14755;DHT22;7469;50.906;6.952;2024-02-21T03:07:40;9.20;99.90
14755;DHT22;7469;50.906;6.952;2024-02-21T03:10:09;9.20;99.90
14755;DHT22;7469;50.906;6.952;2024-02-21T03:12:39;9.30;99.90
14755;DHT22;7469;50.906;6.952;2024-02-21T03:15:08;9.30;99.90
14755;DHT22;7469;50.906;6.952;2024-02-21T03:17:36;9.20;99.90
14755;DHT22;7469;50.906;6.952;2024-02-21T03:20:05;9.20;99.90
14755;DHT22;7469;50.906;6.952;2024-02-21T03:22:36;9.20;99.90
14755;DHT22;7469;50.906;6.952;2024-02-21T03:25:05;9.20;99.90
14755;DHT22;7469;50.906;6.952;2024-02-21T03:27:34;9.20;99.90
14755;DHT22;7469;50.906;6.952;2024-02-21T03:30:04;9.20;99.90
14755;DHT22;7469;50.906;6.952;2024-02-21T03:32:32;9.20;99.90
14755;DHT22;7469;50.906;6.952;2024-02-21T03:35:00;9.20;99.90
14755;DHT22;7469;50.906;6.952;2024-02-21T03:37:28;9.30;99.90
14755;DHT22;7469;50.906;6.952;2024-02-21T03:39:56;9.20;99.90
14755;DHT22;7469;50.906;6.952;2024-02-21T03:42:24;9.20;99.90
14755;DHT22;7469;50.906;6.952;2024-02-21T03:44:52;9.20;99.90
14755;DHT22;7469;50.906;6.952;2024-02-21T03:47:21;9.20;99.90
14755;DHT22;7469;50.906;6.952;2024-02-21T03:49:49;9.20;99.90
14755;DHT22;7469;50.906;6.952;2024-02-21T03:52:18;9.20;99.90
14755;DHT22;7469;50.906;6.952;2024-02-21T03:54:46;9.10;99.90
14755;DHT22;7469;50.906;6.952;2024-02-21T03:57:14;9.20;99.90
14755;DHT22;7469;50.906;6.952;2024-02-21T03:59:42;9.10;99.90
14755;DHT22;7469;50.906;6.952;2024-02-21T04:02:10;9.10;99.90
14755;DHT22;7469;50.906;6.952;2024-02-21T04:04:43;9.10;99.90
14755;DHT22;7469;50.906;6.952;2024-02-21T04:07:13;9.10;99.90
14755;DHT22;7469;50.906;6.952;2024-02-21T04:09:41;9.10;99.90
14755;DHT22;7469;50.906;6.952;2024-02-21T04:12:09;9.10;99.90
14755;DHT22;7469;50.906;6.952;2024-02-21T04:14:37;9.10;99.90
14755;DHT22;7469;50.906;6.952;2024-02-21T04:17:09;9.10;99.90
14755;DHT22;7469;50.906;6.952;2024-02-21T04:19:37;9.10;99.90
14755;DHT22;7469;50.906;6.952;2024-02-21T04:22:06;9.10;99.90
14755;DHT22;7469;50.906;6.952;2024-02-21T04:24:35;9.10;99.90
14755;DHT22;7469;50.906;6.952;2024-02-21T04:27:03;9.10;99.90
14755;DHT22;7469;50.906;6.952;2024-02-21T04:29:31;9.00;99.90
14755;DHT22;7469;50.906;6.952;2024-02-21T04:32:01;9.00;99.90
14755;DHT22;7469;50.906;6.952;2024-02-21T04:34:30;9.00;99.90
14755;DHT22;7469;50.906;6.952;2024-02-21T04:36:58;8.90;99.90
14755;DHT22;7469;50.906;6.952;2024-02-21T04:39:27;8.90;99.90
14755;DHT22;7469;50.906;6.952;2024-02-21T04:41:55;8.90;99.90
14755;DHT22;7469;50.906;6.952;2024-02-21T04:44:23;8.90;99.90
14755;DHT22;7469;50.906;6.952;2024-02-21T04:46:51;8.90;99.90
14755;DHT22;7469;50.906;6.952;2024-02-21T04:49:19;8.90;99.90
14755;DHT22;7469;50.906;6.952;2024-02-21T04:51:47;8.90;99.90
14755;DHT22;7469;50.906;6.952;2024-02-21T04:54:15;8.90;99.90
14755;DHT22;7469;50.906;6.952;2024-02-21T04:56:44;8.90;99.90
14755;DHT22;7469;50.906;6.952;2024-02-21T04:59:12;8.90;99.90
14755;DHT22;7469;50.906;6.952;2024-02-21T05:01:40;8.90;99.90
14755;DHT22;7469;50.906;6.952;2024-02-21T05:04:08;8.90;99.90
14755;DHT22;7469;50.906;6.952;2024-02-21T05:06:37;8.90;99.90
14755;DHT22;7469;50.906;6.952;2024-02-21T05:09:06;8.90;99.90
14755;DHT22;7469;50.906;6.952;2024-02-21T05:11:35;9.00;99.90
14755;DHT22;7469;50.906;6.952;2024-02-21T05:14:05;9.00;99.90
14755;DHT22;7469;50.906;6.952;2024-02-21T05:16:34;9.00;99.90
14755;DHT22;7469;50.906;6.952;2024-02-21T05:19:02;9.00;99.90
14755;DHT22;7469;50.906;6.952;2024-02-21T05:21:31;9.00;99.90
14755;DHT22;7469;50.906;6.952;2024-02-21T05:23:59;9.00;99.90
14755;DHT22;7469;50.906;6.952;2024-02-21T05:26:29;9.00;99.90
14755;DHT22;7469;50.906;6.952;2024-02-21T05:28:56;9.00;99.90
14755;DHT22;7469;50.906;6.952;2024-02-21T05:34:00;9.00;99.90
14755;DHT22;7469;50.906;6.952;2024-02-21T05:36:31;9.00;99.90
14755;DHT22;7469;50.906;6.952;2024-02-21T05:38:59;9.00;99.90
14755;DHT22;7469;50.906;6.952;2024-02-21T05:41:27;8.90;99.90
14755;DHT22;7469;50.906;6.952;2024-02-21T05:43:55;9.00;99.90
14755;DHT22;7469;50.906;6.952;2024-02-21T05:46:23;9.00;99.90
14755;DHT22;7469;50.906;6.952;2024-02-21T05:48:52;9.00;99.90
14755;DHT22;7469;50.906;6.952;2024-02-21T05:51:21;9.00;99.90
14755;DHT22;7469;50.906;6.952;2024-02-21T05:53:49;9.00;99.90
14755;DHT22;7469;50.906;6.952;2024-02-21T05:56:16;9.00;99.90
14755;DHT22;7469;50.906;6.952;2024-02-21T05:58:45;9.00;99.90
14755;DHT22;7469;50.906;6.952;2024-02-21T06:01:13;9.00;99.90
14755;DHT22;7469;50.906;6.952;2024-02-21T06:03:41;9.00;99.90
14755;DHT22;7469;50.906;6.952;2024-02-21T06:06:11;9.00;99.90
14755;DHT22;7469;50.906;6.952;2024-02-21T06:08:39;9.00;99.90
14755;DHT22;7469;50.906;6.952;2024-02-21T06:11:07;9.00;99.90
14755;DHT22;7469;50.906;6.952;2024-02-21T06:13:38;9.00;99.90
14755;DHT22;7469;50.906;6.952;2024-02-21T06:16:07;9.00;99.90
14755;DHT22;7469;50.906;6.952;2024-02-21T06:18:36;9.00;99.90
14755;DHT22;7469;50.906;6.952;2024-02-21T06:21:05;9.00;99.90
14755;DHT22;7469;50.906;6.952;2024-02-21T06:23:34;9.00;99.90
14755;DHT22;7469;50.906;6.952;2024-02-21T06:26:04;9.00;99.90
14755;DHT22;7469;50.906;6.952;2024-02-21T06:28:32;9.00;99.90
14755;DHT22;7469;50.906;6.952;2024-02-21T06:31:00;9.00;99.90
14755;DHT22;7469;50.906;6.952;2024-02-21T06:33:28;9.10;99.90
14755;DHT22;7469;50.906;6.952;2024-02-21T06:35:56;9.10;99.90
14755;DHT22;7469;50.906;6.952;2024-02-21T06:38:24;9.10;99.90
14755;DHT22;7469;50.906;6.952;2024-02-21T06:40:53;9.00;99.90
14755;DHT22;7469;50.906;6.952;2024-02-21T06:43:21;9.00;99.90
14755;DHT22;7469;50.906;6.952;2024-02-21T06:45:49;9.00;99.90
14755;DHT22;7469;50.906;6.952;2024-02-21T06:48:18;9.00;99.90
14755;DHT22;7469;50.906;6.952;2024-02-21T06:50:46;9.00;99.90
14755;DHT22;7469;50.906;6.952;2024-02-21T06:53:14;9.00;99.90
14755;DHT22;7469;50.906;6.952;2024-02-21T06:55:42;9.00;99.90
14755;DHT22;7469;50.906;6.952;2024-02-21T06:58:12;9.00;99.90
14755;DHT22;7469;50.906;6.952;2024-02-21T07:00:42;9.00;99.90
14755;DHT22;7469;50.906;6.952;2024-02-21T07:03:10;9.00;99.90
14755;DHT22;7469;50.906;6.952;2024-02-21T07:05:38;9.00;99.90
14755;DHT22;7469;50.906;6.952;2024-02-21T07:08:06;9.10;99.90
14755;DHT22;7469;50.906;6.952;2024-02-21T07:10:34;9.10;99.90
14755;DHT22;7469;50.906;6.952;2024-02-21T07:13:02;9.00;99.90
14755;DHT22;7469;50.906;6.952;2024-02-21T07:15:32;9.10;99.90
14755;DHT22;7469;50.906;6.952;2024-02-21T07:17:59;9.00;99.90
14755;DHT22;7469;50.906;6.952;2024-02-21T07:20:28;9.10;99.90
14755;DHT22;7469;50.906;6.952;2024-02-21T07:22:56;9.00;99.90
14755;DHT22;7469;50.906;6.952;2024-02-21T07:25:24;9.00;99.90
14755;DHT22;7469;50.906;6.952;2024-02-21T07:27:52;8.90;99.90
14755;DHT22;7469;50.906;6.952;2024-02-21T07:30:20;9.00;99.90
14755;DHT22;7469;50.906;6.952;2024-02-21T07:32:50;9.00;99.90
14755;DHT22;7469;50.906;6.952;2024-02-21T07:35:18;9.00;99.90
14755;DHT22;7469;50.906;6.952;2024-02-21T07:37:46;9.10;99.90
14755;DHT22;7469;50.906;6.952;2024-02-21T07:40:16;9.00;99.90
14755;DHT22;7469;50.906;6.952;2024-02-21T07:42:44;9.00;99.90
14755;DHT22;7469;50.906;6.952;2024-02-21T07:45:17;9.00;99.90
14755;DHT22;7469;50.906;6.952;2024-02-21T07:47:50;9.00;99.90
14755;DHT22;7469;50.906;6.952;2024-02-21T07:50:18;9.00;99.90
14755;DHT22;7469;50.906;6.952;2024-02-21T07:52:46;9.00;99.90
14755;DHT22;7469;50.906;6.952;2024-02-21T07:55:14;9.00;99.90
14755;DHT22;7469;50.906;6.952;2024-02-21T07:57:42;9.10;99.90
14755;DHT22;7469;50.906;6.952;2024-02-21T08:00:10;9.00;99.90
14755;DHT22;7469;50.906;6.952;2024-02-21T08:02:44;9.10;99.90
14755;DHT22;7469;50.906;6.952;2024-02-21T08:05:13;9.00;99.90
14755;DHT22;7469;50.906;6.952;2024-02-21T08:07:41;9.00;99.90
14755;DHT22;7469;50.906;6.952;2024-02-21T08:10:09;9.00;99.90
14755;DHT22;7469;50.906;6.952;2024-02-21T08:12:38;9.00;99.90
14755;DHT22;7469;50.906;6.952;2024-02-21T08:15:06;9.00;99.90
14755;DHT22;7469;50.906;6.952;2024-02-21T08:17:37;9.00;99.90
14755;DHT22;7469;50.906;6.952;2024-02-21T08:20:06;9.00;99.90
14755;DHT22;7469;50.906;6.952;2024-02-21T08:22:37;9.00;99.90
14755;DHT22;7469;50.906;6.952;2024-02-21T08:25:05;9.00;99.90
14755;DHT22;7469;50.906;6.952;2024-02-21T08:27:33;9.10;99.90
14755;DHT22;7469;50.906;6.952;2024-02-21T08:30:02;9.10;99.90
14755;DHT22;7469;50.906;6.952;2024-02-21T08:32:29;9.20;99.90
14755;DHT22;7469;50.906;6.952;2024-02-21T08:34:57;9.20;99.90
14755;DHT22;7469;50.906;6.952;2024-02-21T08:37:27;9.20;99.90
14755;DHT22;7469;50.906;6.952;2024-02-21T08:39:56;9.20;99.90
14755;DHT22;7469;50.906;6.952;2024-02-21T08:42:24;9.20;99.90
14755;DHT22;7469;50.906;6.952;2024-02-21T08:44:52;9.20;99.90
14755;DHT22;7469;50.906;6.952;2024-02-21T08:47:20;9.30;99.90
14755;DHT22;7469;50.906;6.952;2024-02-21T08:49:48;9.30;99.90
14755;DHT22;7469;50.906;6.952;2024-02-21T08:52:16;9.30;99.90
14755;DHT22;7469;50.906;6.952;2024-02-21T08:54:44;9.40;99.90
14755;DHT22;7469;50.906;6.952;2024-02-21T08:57:14;9.40;99.90
14755;DHT22;7469;50.906;6.952;2024-02-21T08:59:41;9.40;99.90
14755;DHT22;7469;50.906;6.952;2024-02-21T09:02:09;9.50;99.90
14755;DHT22;7469;50.906;6.952;2024-02-21T09:04:37;9.60;99.90
14755;DHT22;7469;50.906;6.952;2024-02-21T09:07:05;9.60;99.90
14755;DHT22;7469;50.906;6.952;2024-02-21T09:09:33;9.80;99.90
14755;DHT22;7469;50.906;6.952;2024-02-21T09:12:01;9.90;99.90
14755;DHT22;7469;50.906;6.952;2024-02-21T09:14:36;9.90;99.90
14755;DHT22;7469;50.906;6.952;2024-02-21T09:17:05;10.00;99.90
14755;DHT22;7469;50.906;6.952;2024-02-21T09:19:35;10.10;99.90
14755;DHT22;7469;50.906;6.952;2024-02-21T09:22:03;10.10;99.90
14755;DHT22;7469;50.906;6.952;2024-02-21T09:24:31;10.20;99.90
14755;DHT22;7469;50.906;6.952;2024-02-21T09:26:59;10.20;99.90
14755;DHT22;7469;50.906;6.952;2024-02-21T09:29:27;10.20;99.90
14755;DHT22;7469;50.906;6.952;2024-02-21T09:31:57;10.30;99.90
14755;DHT22;7469;50.906;6.952;2024-02-21T09:34:25;10.40;99.90
14755;DHT22;7469;50.906;6.952;2024-02-21T09:36:54;10.40;99.90
14755;DHT22;7469;50.906;6.952;2024-02-21T09:39:24;10.50;99.90
14755;DHT22;7469;50.906;6.952;2024-02-21T09:41:59;10.60;99.90
14755;DHT22;7469;50.906;6.952;2024-02-21T09:44:37;10.60;99.90
14755;DHT22;7469;50.906;6.952;2024-02-21T09:47:10;10.70;99.90
14755;DHT22;7469;50.906;6.952;2024-02-21T09:49:40;10.70;99.90
14755;DHT22;7469;50.906;6.952;2024-02-21T09:52:09;10.70;99.90
14755;DHT22;7469;50.906;6.952;2024-02-21T09:54:41;10.70;99.90
14755;DHT22;7469;50.906;6.952;2024-02-21T09:57:11;10.80;99.90
14755;DHT22;7469;50.906;6.952;2024-02-21T09:59:39;10.90;99.90
14755;DHT22;7469;50.906;6.952;2024-02-21T10:02:10;10.90;99.90
14755;DHT22;7469;50.906;6.952;2024-02-21T10:04:39;10.90;99.90
14755;DHT22;7469;50.906;6.952;2024-02-21T10:07:08;11.00;99.90
14755;DHT22;7469;50.906;6.952;2024-02-21T10:09:36;11.10;99.90
14755;DHT22;7469;50.906;6.952;2024-02-21T10:12:11;11.20;99.90
14755;DHT22;7469;50.906;6.952;2024-02-21T10:14:40;11.20;99.90
14755;DHT22;7469;50.906;6.952;2024-02-21T10:17:14;11.20;99.90
14755;DHT22;7469;50.906;6.952;2024-02-21T10:19:45;11.20;99.90
14755;DHT22;7469;50.906;6.952;2024-02-21T10:22:15;11.10;99.90
14755;DHT22;7469;50.906;6.952;2024-02-21T10:24:43;11.10;99.90
14755;DHT22;7469;50.906;6.952;2024-02-21T10:27:11;11.10;99.90
14755;DHT22;7469;50.906;6.952;2024-02-21T10:29:40;11.10;99.90
14755;DHT22;7469;50.906;6.952;2024-02-21T10:32:11;11.00;99.90
14755;DHT22;7469;50.906;6.952;2024-02-21T10:34:40;11.00;99.90
14755;DHT22;7469;50.906;6.952;2024-02-21T10:37:10;10.90;99.90
14755;DHT22;7469;50.906;6.952;2024-02-21T10:39:40;11.10;99.90
14755;DHT22;7469;50.906;6.952;2024-02-21T10:42:11;11.20;99.90
14755;DHT22;7469;50.906;6.952;2024-02-21T10:44:40;11.40;99.90
14755;DHT22;7469;50.906;6.952;2024-02-21T10:47:11;11.60;99.90
14755;DHT22;7469;50.906;6.952;2024-02-21T10:49:42;12.00;99.90
14755;DHT22;7469;50.906;6.952;2024-02-21T10:52:17;11.90;99.90
14755;DHT22;7469;50.906;6.952;2024-02-21T10:54:55;11.80;99.90
14755;DHT22;7469;50.906;6.952;2024-02-21T10:57:25;11.70;99.90
14755;DHT22;7469;50.906;6.952;2024-02-21T10:59:56;11.70;99.90
14755;DHT22;7469;50.906;6.952;2024-02-21T11:02:28;11.80;99.90
14755;DHT22;7469;50.906;6.952;2024-02-21T11:04:58;11.80;99.90
14755;DHT22;7469;50.906;6.952;2024-02-21T11:07:27;11.70;99.90
14755;DHT22;7469;50.906;6.952;2024-02-21T11:09:55;11.80;99.90
14755;DHT22;7469;50.906;6.952;2024-02-21T11:12:24;11.90;99.90
14755;DHT22;7469;50.906;6.952;2024-02-21T11:15:04;12.00;99.90
14755;DHT22;7469;50.906;6.952;2024-02-21T11:17:34;12.10;99.90
14755;DHT22;7469;50.906;6.952;2024-02-21T11:20:16;12.20;99.90
14755;DHT22;7469;50.906;6.952;2024-02-21T11:22:44;12.20;99.90
14755;DHT22;7469;50.906;6.952;2024-02-21T11:25:12;12.30;99.90
14755;DHT22;7469;50.906;6.952;2024-02-21T11:27:46;12.30;99.90
14755;DHT22;7469;50.906;6.952;2024-02-21T11:30:14;12.40;99.90
14755;DHT22;7469;50.906;6.952;2024-02-21T11:32:44;12.30;99.90
14755;DHT22;7469;50.906;6.952;2024-02-21T11:35:19;12.30;99.90
14755;DHT22;7469;50.906;6.952;2024-02-21T11:37:47;12.20;99.90
14755;DHT22;7469;50.906;6.952;2024-02-21T11:40:15;12.10;99.90
14755;DHT22;7469;50.906;6.952;2024-02-21T11:42:43;12.00;99.90
14755;DHT22;7469;50.906;6.952;2024-02-21T11:45:11;11.90;99.90
14755;DHT22;7469;50.906;6.952;2024-02-21T11:47:44;12.00;99.90
14755;DHT22;7469;50.906;6.952;2024-02-21T11:50:12;11.90;99.90
14755;DHT22;7469;50.906;6.952;2024-02-21T11:52:44;11.90;99.90
14755;DHT22;7469;50.906;6.952;2024-02-21T11:55:12;11.90;99.90
14755;DHT22;7469;50.906;6.952;2024-02-21T11:57:40;11.90;99.90
14755;DHT22;7469;50.906;6.952;2024-02-21T12:00:13;11.90;99.90
14755;DHT22;7469;50.906;6.952;2024-02-21T12:02:43;11.90;99.90
14755;DHT22;7469;50.906;6.952;2024-02-21T12:05:12;11.90;99.90
14755;DHT22;7469;50.906;6.952;2024-02-21T12:07:40;11.80;99.90
14755;DHT22;7469;50.906;6.952;2024-02-21T12:10:09;11.90;99.90
14755;DHT22;7469;50.906;6.952;2024-02-21T12:12:38;11.90;99.90
14755;DHT22;7469;50.906;6.952;2024-02-21T12:15:07;11.80;99.90
14755;DHT22;7469;50.906;6.952;2024-02-21T12:17:35;11.80;99.90
14755;DHT22;7469;50.906;6.952;2024-02-21T12:20:06;11.80;99.90
14755;DHT22;7469;50.906;6.952;2024-02-21T12:22:37;11.80;99.90
14755;DHT22;7469;50.906;6.952;2024-02-21T12:25:15;11.80;99.90
14755;DHT22;7469;50.906;6.952;2024-02-21T12:27:45;11.90;99.90
14755;DHT22;7469;50.906;6.952;2024-02-21T12:30:13;11.80;99.90
14755;DHT22;7469;50.906;6.952;2024-02-21T12:32:41;11.90;99.90
14755;DHT22;7469;50.906;6.952;2024-02-21T12:35:11;11.80;99.90
14755;DHT22;7469;50.906;6.952;2024-02-21T12:37:39;11.80;99.90
14755;DHT22;7469;50.906;6.952;2024-02-21T12:40:09;11.80;99.90
14755;DHT22;7469;50.906;6.952;2024-02-21T12:42:40;11.80;99.90
14755;DHT22;7469;50.906;6.952;2024-02-21T12:45:09;11.80;99.90
14755;DHT22;7469;50.906;6.952;2024-02-21T12:47:37;11.80;99.90
14755;DHT22;7469;50.906;6.952;2024-02-21T12:50:07;11.80;99.90
14755;DHT22;7469;50.906;6.952;2024-02-21T12:52:37;11.80;99.90
14755;DHT22;7469;50.906;6.952;2024-02-21T12:55:05;11.70;99.90
14755;DHT22;7469;50.906;6.952;2024-02-21T12:57:33;11.70;99.90
14755;DHT22;7469;50.906;6.952;2024-02-21T13:00:01;11.60;99.90
14755;DHT22;7469;50.906;6.952;2024-02-21T13:02:30;11.70;99.90
14755;DHT22;7469;50.906;6.952;2024-02-21T13:04:58;11.80;99.90
14755;DHT22;7469;50.906;6.952;2024-02-21T13:07:27;11.90;99.90
14755;DHT22;7469;50.906;6.952;2024-02-21T13:09:56;11.90;99.90
14755;DHT22;7469;50.906;6.952;2024-02-21T13:12:24;11.90;99.90
14755;DHT22;7469;50.906;6.952;2024-02-21T13:14:54;12.00;99.90
14755;DHT22;7469;50.906;6.952;2024-02-21T13:17:22;12.00;99.90
14755;DHT22;7469;50.906;6.952;2024-02-21T13:19:50;12.00;99.90
14755;DHT22;7469;50.906;6.952;2024-02-21T13:22:18;12.00;99.90
14755;DHT22;7469;50.906;6.952;2024-02-21T13:24:49;12.00;99.90
14755;DHT22;7469;50.906;6.952;2024-02-21T13:27:20;12.10;99.90
14755;DHT22;7469;50.906;6.952;2024-02-21T13:29:48;12.10;99.90
14755;DHT22;7469;50.906;6.952;2024-02-21T13:32:16;12.10;99.90
14755;DHT22;7469;50.906;6.952;2024-02-21T13:34:44;12.10;99.90
14755;DHT22;7469;50.906;6.952;2024-02-21T13:37:12;12.10;99.90
14755;DHT22;7469;50.906;6.952;2024-02-21T13:39:41;12.10;99.90
14755;DHT22;7469;50.906;6.952;2024-02-21T13:42:09;12.10;99.90
14755;DHT22;7469;50.906;6.952;2024-02-21T13:44:38;12.10;99.90
14755;DHT22;7469;50.906;6.952;2024-02-21T13:47:07;12.10;99.90
14755;DHT22;7469;50.906;6.952;2024-02-21T13:49:35;12.00;99.90
14755;DHT22;7469;50.906;6.952;2024-02-21T13:52:04;11.90;99.90
14755;DHT22;7469;50.906;6.952;2024-02-21T13:54:32;12.00;99.90
14755;DHT22;7469;50.906;6.952;2024-02-21T13:57:00;11.90;99.90
14755;DHT22;7469;50.906;6.952;2024-02-21T13:59:29;11.90;99.90
14755;DHT22;7469;50.906;6.952;2024-02-21T14:01:58;11.80;99.90
14755;DHT22;7469;50.906;6.952;2024-02-21T14:04:26;11.80;99.90
14755;DHT22;7469;50.906;6.952;2024-02-21T14:06:54;11.80;99.90
14755;DHT22;7469;50.906;6.952;2024-02-21T14:09:22;11.80;99.90
14755;DHT22;7469;50.906;6.952;2024-02-21T14:11:50;11.80;99.90
14755;DHT22;7469;50.906;6.952;2024-02-21T14:14:18;11.90;99.90
14755;DHT22;7469;50.906;6.952;2024-02-21T14:16:46;11.90;99.90
14755;DHT22;7469;50.906;6.952;2024-02-21T14:19:16;11.90;99.90
14755;DHT22;7469;50.906;6.952;2024-02-21T14:21:45;11.90;99.90
14755;DHT22;7469;50.906;6.952;2024-02-21T14:24:13;12.00;99.90
14755;DHT22;7469;50.906;6.952;2024-02-21T14:26:41;12.00;99.90
14755;DHT22;7469;50.906;6.952;2024-02-21T14:29:09;11.90;99.90
14755;DHT22;7469;50.906;6.952;2024-02-21T14:31:37;11.90;99.90
14755;DHT22;7469;50.906;6.952;2024-02-21T14:34:05;11.90;99.90
14755;DHT22;7469;50.906;6.952;2024-02-21T14:36:36;11.90;99.90
14755;DHT22;7469;50.906;6.952;2024-02-21T14:39:04;11.90;99.90
14755;DHT22;7469;50.906;6.952;2024-02-21T14:41:32;11.80;99.90
14755;DHT22;7469;50.906;6.952;2024-02-21T14:44:02;11.80;99.90
14755;DHT22;7469;50.906;6.952;2024-02-21T14:46:31;11.90;99.90
14755;DHT22;7469;50.906;6.952;2024-02-21T14:48:59;11.90;99.90
14755;DHT22;7469;50.906;6.952;2024-02-21T14:51:27;11.80;99.90
14755;DHT22;7469;50.906;6.952;2024-02-21T14:53:57;11.90;99.90
14755;DHT22;7469;50.906;6.952;2024-02-21T14:56:25;11.90;99.90
14755;DHT22;7469;50.906;6.952;2024-02-21T14:58:53;11.90;99.90
14755;DHT22;7469;50.906;6.952;2024-02-21T15:01:24;11.90;99.90
14755;DHT22;7469;50.906;6.952;2024-02-21T15:03:52;11.90;99.90
14755;DHT22;7469;50.906;6.952;2024-02-21T15:06:20;11.90;99.90
14755;DHT22;7469;50.906;6.952;2024-02-21T15:08:48;11.90;99.90
14755;DHT22;7469;50.906;6.952;2024-02-21T15:11:18;11.90;99.90
14755;DHT22;7469;50.906;6.952;2024-02-21T15:13:46;11.90;99.90
14755;DHT22;7469;50.906;6.952;2024-02-21T15:16:15;11.90;99.90
14755;DHT22;7469;50.906;6.952;2024-02-21T15:18:43;11.90;99.90
14755;DHT22;7469;50.906;6.952;2024-02-21T15:21:11;11.90;99.90
14755;DHT22;7469;50.906;6.952;2024-02-21T15:23:40;11.90;99.90
14755;DHT22;7469;50.906;6.952;2024-02-21T15:26:08;11.90;99.90
14755;DHT22;7469;50.906;6.952;2024-02-21T15:28:38;11.90;99.90
14755;DHT22;7469;50.906;6.952;2024-02-21T15:31:06;12.00;99.90
14755;DHT22;7469;50.906;6.952;2024-02-21T15:33:34;11.90;99.90
14755;DHT22;7469;50.906;6.952;2024-02-21T15:36:05;11.90;99.90
14755;DHT22;7469;50.906;6.952;2024-02-21T15:38:33;11.90;99.90
14755;DHT22;7469;50.906;6.952;2024-02-21T15:41:02;11.90;99.90
14755;DHT22;7469;50.906;6.952;2024-02-21T15:43:30;12.00;99.90
14755;DHT22;7469;50.906;6.952;2024-02-21T15:45:59;11.90;99.90
14755;DHT22;7469;50.906;6.952;2024-02-21T15:48:27;11.90;99.90
14755;DHT22;7469;50.906;6.952;2024-02-21T15:50:55;11.80;99.90
14755;DHT22;7469;50.906;6.952;2024-02-21T15:53:23;11.80;99.90
14755;DHT22;7469;50.906;6.952;2024-02-21T15:55:51;11.80;99.90
14755;DHT22;7469;50.906;6.952;2024-02-21T15:58:19;11.70;99.90
14755;DHT22;7469;50.906;6.952;2024-02-21T16:00:49;11.70;99.90
14755;DHT22;7469;50.906;6.952;2024-02-21T16:03:18;11.60;99.90
14755;DHT22;7469;50.906;6.952;2024-02-21T16:05:46;11.60;99.90
14755;DHT22;7469;50.906;6.952;2024-02-21T16:08:14;11.60;99.90